»·PEaware :: N48427 KSNA-KAVX

N48427 :: KSNA-KAVX

FLIGHT INFORMATION

Flight Status: Arrived
Operator: Privately registered:
United States
More flights under this callsign
Pilot: Brian D. (22974)
Aircraft: Unknown
(P28U)
More flights by this aircraft type
Origin: KSNA John Wayne-Orange Co
United States
Destination: KAVX Catalina
United States
More flights between these airports :: More routes between these airports
Route: SLI V21 SXC
File this flight plan on PilotEdge
Remarks: I-7 test
Altitude:
(Current/Filed)
4,000ft
Speed:
(Current/Filed)
120kts
Departed: 10-Jan-20 05:51 PM
Arrived: 10-Jan-20 06:22 PM
Distance/Time
Traveled:
32nm/0:30
Distance/Time
To Go:
Arrived

Flight Plot

Page will automatically refresh every two minutes.


Map Options




Map Legend


Flown Route
Filed Route
Departure Airport
Arrival Airport
Navaid (VOR, NDB)
Fix

Horizontal Profiles

Position Reports

Time Latitude Longitude Heading Altitude Ground
Speed
10-Jan-20 17:24 33.674542 -117.872129 118 59ft 0kts
10-Jan-20 17:25 33.674542 -117.872129 118 59ft 0kts
10-Jan-20 17:26 33.674542 -117.872129 118 59ft 0kts
10-Jan-20 17:27 33.674542 -117.872129 118 59ft 0kts
10-Jan-20 17:28 33.674542 -117.872129 118 59ft 0kts
10-Jan-20 17:29 33.674542 -117.872129 118 59ft 0kts
10-Jan-20 17:30 33.674542 -117.872129 118 59ft 0kts
10-Jan-20 17:31 33.674542 -117.872129 118 59ft 0kts
10-Jan-20 17:32 33.674542 -117.872129 118 59ft 0kts
10-Jan-20 17:33 33.674542 -117.872129 118 59ft 0kts
10-Jan-20 17:34 33.674542 -117.872129 118 59ft 0kts
10-Jan-20 17:35 33.674542 -117.872129 118 59ft 0kts
10-Jan-20 17:36 33.674542 -117.872129 118 59ft 0kts
10-Jan-20 17:37 33.674542 -117.872129 118 59ft 0kts
10-Jan-20 17:38 33.674542 -117.872129 118 59ft 0kts
10-Jan-20 17:39 33.674542 -117.872129 118 59ft 0kts
10-Jan-20 17:40 33.674542 -117.872128 118 59ft 0kts
10-Jan-20 17:41 33.674542 -117.872128 118 59ft 0kts
10-Jan-20 17:42 33.674542 -117.872128 118 59ft 0kts
10-Jan-20 17:43 33.674542 -117.872128 118 59ft 0kts
10-Jan-20 17:44 33.674542 -117.872128 118 59ft 0kts
10-Jan-20 17:45 33.674405 -117.871324 117 59ft 8kts
10-Jan-20 17:46 33.677081 -117.869448 28 59ft 16kts
10-Jan-20 17:47 33.679950 -117.867818 26 59ft 6kts
10-Jan-20 17:48 33.681197 -117.866420 114 59ft 0kts
10-Jan-20 17:49 33.681196 -117.866418 114 59ft 0kts
10-Jan-20 17:50 33.678367 -117.867176 207 59ft 67kts
10-Jan-20 17:51 33.658740 -117.880594 221 779ft 96kts
10-Jan-20 17:52 33.647748 -117.907847 243 1632ft 95kts
10-Jan-20 17:53 33.635077 -117.937126 236 2235ft 104kts
10-Jan-20 17:54 33.620423 -117.966964 239 2831ft 103kts
10-Jan-20 17:55 33.606239 -117.997240 242 3363ft 103kts
10-Jan-20 17:56 33.591656 -118.026993 238 3883ft 103kts
10-Jan-20 17:57 33.574563 -118.058090 238 3996ft 118kts
10-Jan-20 17:58 33.556160 -118.091455 238 3995ft 120kts
10-Jan-20 17:59 33.537227 -118.124401 238 3996ft 122kts
10-Jan-20 18:00 33.517671 -118.158019 240 3996ft 123kts
10-Jan-20 18:01 33.498029 -118.192576 239 3998ft 126kts
10-Jan-20 18:02 33.477836 -118.227969 241 3972ft 128kts
10-Jan-20 18:03 33.458354 -118.264508 240 3974ft 131kts
10-Jan-20 18:04 33.438213 -118.301662 240 3976ft 134kts
10-Jan-20 18:05 33.418283 -118.339646 241 3977ft 134kts
10-Jan-20 18:06 33.398692 -118.377822 241 3977ft 134kts
10-Jan-20 18:07 33.379259 -118.416254 241 3977ft 134kts
10-Jan-20 18:08 33.395488 -118.439032 5 3978ft 125kts
10-Jan-20 18:09 33.430342 -118.434355 7 3977ft 126kts
10-Jan-20 18:10 33.465346 -118.431559 334 3966ft 127kts
10-Jan-20 18:11 33.495960 -118.451568 341 3976ft 126kts
10-Jan-20 18:12 33.529263 -118.465193 351 3976ft 125kts
10-Jan-20 18:13 33.563244 -118.459024 39 3368ft 125kts
10-Jan-20 18:14 33.551160 -118.426765 133 3381ft 119kts
10-Jan-20 18:15 33.528860 -118.399919 133 3381ft 118kts
10-Jan-20 18:16 33.496277 -118.396027 186 3383ft 119kts
10-Jan-20 18:17 33.463051 -118.401156 188 3342ft 121kts
10-Jan-20 18:18 33.429306 -118.411483 213 3001ft 127kts
10-Jan-20 18:19 33.414723 -118.392896 115 2393ft 112kts
10-Jan-20 18:20 33.409432 -118.403285 302 1997ft 79kts
10-Jan-20 18:21 33.404066 -118.417350 234 1605ft 14kts
10-Jan-20 18:22 33.402446 -118.419391 54 1605ft 7kts
10-Jan-20 18:23 33.403265 -118.415861 181 1605ft 6kts
10-Jan-20 18:24 33.403232 -118.415823 339 1605ft 0kts
10-Jan-20 18:25 33.403232 -118.415823 339 1605ft 0kts
10-Jan-20 18:26 33.403232 -118.415823 339 1605ft 0kts
10-Jan-20 18:27 33.403232 -118.415823 339 1605ft 0kts
10-Jan-20 18:28 33.403232 -118.415823 339 1605ft 0kts
10-Jan-20 18:29 33.403232 -118.415823 339 1605ft 0kts
10-Jan-20 18:30 33.403232 -118.415823 339 1605ft 0kts
10-Jan-20 18:31 33.403232 -118.415823 339 1605ft 0kts
10-Jan-20 18:32 33.403232 -118.415823 339 1605ft 0kts
10-Jan-20 18:33 33.403232 -118.415823 339 1605ft 0kts
10-Jan-20 18:34 33.403232 -118.415823 339 1605ft 0kts
10-Jan-20 18:35 33.403232 -118.415823 339 1605ft 0kts

Navigation Log

Ident Type
Flight plan parsing failed, navigation log unavailable